Black Rock, New Mexico
Current Conditions -  °F | °C
As of 7:53 PM on Thursday 27 Nov 2014 (Local Time) from KGUP Reporting Station
Clear Clear  
Wind Chill: 34°   Ceiling: Unl
Heat Index: 34°   Visibility: 10mi
Dew Point:   Wind: 0mph
Humidity: 32%   Direction: NA
Pressure: 30.37"   Gusts: NA
Location:  35.0898°N, 108.763°W
Report Text: KGUP 280253Z AUTO 00000KT 10SM CLR 01/M14 A3037 RMK AO2 SLP328 T00111139 51004
Loading
Personal Weather Stations






























Interactive Weather Map New forecast layout! Learn more

10-Day Weather Forecast

Advertisements
Track Severe Weather on mobile